Morris, IL (60450)

10:43 AM CST die 28o February, anno 2017 (GMT -0600)
Bedford Road | | Change Station

Elev 0 ft 41.37 °N, 88.43 °W | Updated 5 minutes ago

Aequaliter Nubila
Aequaliter Nubila
53.6 °F
Feels Like 53.6 °F
N
7.5
Ventus Variabilis Ventus from Magis Eurus quam Auster
Gusts 12.4 mph

Hodie
High -- | Low -- °F
--% Chance of Precip.
Yesterday
High -- | Low -- °F
Precip. -- in
Pressio 29.76 in
Visibilitas 10.0 milia passuum
Clouds Aequaliter Nubila 700 ft
Frigus in quo Ros apparet 52 °F
Umor 96%
Rainfall 0.10 in
Snow Depth Not available.
6:29 AM 5:43 PM
Waxing Crescent, 5% visible
METAR KC09 281635Z AUTO 19013G19KT 10SM OVC007 12/11 A2976 RMK AO2 T01240113
Pressio 29.76 in
Visibilitas 10.0 milia passuum
Clouds Aequaliter Nubila 700 ft
Frigus in quo Ros apparet 52 °F
Umor 96%
Rainfall 0.10 in
Snow Depth Not available.
6:29 AM 5:43 PM
Waxing Crescent, 5% visible
METAR KC09 281635Z AUTO 19013G19KT 10SM OVC007 12/11 A2976 RMK AO2 T01240113

Get Your Daily Forecast Email!

Thanks for signing up!

Be on the lookout for a verification email in your inbox.

You'll start receiving the daily forecast at 8 AM.

×

10-Day Weather Forecast

Almanac

Astronomy

Feb. 28, 2017 Rise Set
Actual Time
Civil Twilight
Nautical Twilight
Astronomical Twilight
Moon
Length Of Visible Light
Length of Day
Tomorrow will be .
, % of the Moon is Illuminated

Today's Extremes

State Highs State Lows

Community

WunderPhotos

Upload Photos

1,962,540 photos uploaded!

WunderBlog® & News

Nearby

Air Quality

  Air Quality AQ Index Pollutant
Not available.

Snow Depth

Station Depth Elevation

Earthquake Activity

City Distance Mag. Time & Date
Minimum magnitude displayed is 2.5.

Coastal Water Temperatures

Locus Calor

Stations

Nearby Weather Stations

Station Location Temp Frigus Venti Frigus in quo Ros apparet Umor Ventus Precip. Elev Renovata Type
                   

Watches & Warnings

There are currently no watches in effect.